Flight Track Log - Related Links

Times and Time Zones

All times are in EDT time to prevent confusion due to time zone crossing. See the SWA868 flight status page for this flight to view local times or setup timezone preferences in your user account.


Time Position Orientation Groundspeed Altitude Reporting Facility
EDT Latitude Longitude Course Direction KTS MPH feet Rate Location/Type
Mon 09:35:13 PM 28.0000 -82.5333 360° North 148 170 900  Level Tampa TRACON
Mon 09:36:19 PM 28.0500 -82.5333 360° North 202 232 3,100 2,319 Climbing Tampa TRACON
Mon 09:37:56 PM 28.1661 -82.5511 352° North 263 303 7,200 2,904 Climbing Jacksonville Center
Mon 09:38:56 PM 28.2433 -82.5675 349° North 273 314 10,700 2,950 Climbing Jacksonville Center
Mon 09:39:56 PM 28.3372 -82.5767 355° North 300 345 13,100 2,900 Climbing Jacksonville Center
Mon 09:40:56 PM 28.4375 -82.5856 356° North 336 387 16,500 3,150 Climbing Jacksonville Center
Mon 09:41:56 PM 28.5397 -82.5878 359° North 349 402 19,400 2,700 Climbing Jacksonville Center
Mon 09:42:56 PM 28.6461 -82.5897 359° North 369 425 21,900 2,300 Climbing Jacksonville Center
Mon 09:43:56 PM 28.7528 -82.6014 355° North 374 430 24,000 2,200 Climbing Jacksonville Center
Mon 09:44:56 PM 28.8656 -82.6153 354° North 387 445 26,300 2,150 Climbing Jacksonville Center
Mon 09:45:56 PM 28.9781 -82.6314 353° North 392 451 28,300 1,800 Climbing Jacksonville Center
Mon 09:46:56 PM 29.0931 -82.6503 352° North 408 470 29,900 850 Climbing Jacksonville Center
Mon 09:47:56 PM 29.2142 -82.6642 354° North 420 483 30,000 50 Climbing Jacksonville Center
Mon 09:48:56 PM 29.3331 -82.6806 353° North 426 490 30,000  Level Jacksonville Center
Mon 09:49:56 PM 29.4500 -82.6922 355° North 426 490 30,000 250 Level Jacksonville Center
Mon 09:50:56 PM 29.5608 -82.6944 359° North 426 490 30,500 900 Climbing Jacksonville Center
Mon 09:51:56 PM 29.6817 -82.6775 North 431 496 31,800 750 Climbing Jacksonville Center
Mon 09:52:56 PM 29.7944 -82.6103 27° Northeast 436 502 32,000 600 Climbing Jacksonville Center
Mon 09:53:56 PM 29.9069 -82.5356 30° Northeast 446 513 33,000 1,300 Climbing Jacksonville Center
Mon 09:54:56 PM 30.0153 -82.4608 31° Northeast 446 513 34,600 1,350 Climbing Jacksonville Center
Mon 09:55:56 PM 30.1319 -82.4075 22° Northeast 446 513 35,700 1,300 Climbing Jacksonville Center
Mon 09:56:56 PM 30.2508 -82.3683 16° North 446 513 37,200 1,300 Climbing Jacksonville Center
Mon 09:57:56 PM 30.3717 -82.3194 19° North 446 513 38,300 900 Climbing Jacksonville Center
Mon 09:58:56 PM 30.4925 -82.2778 17° North 446 513 39,000 350 Climbing Jacksonville Center
Mon 09:59:56 PM 30.6136 -82.2408 15° North 446 513 39,000  Level Jacksonville Center
Mon 10:01:00 PM 30.7503 -82.2316 17° North  Level FlightAware Approximate
Mon 10:01:56 PM 30.8614 -82.1544 17° North 451 519 39,000  Level Jacksonville Center
Mon 10:02:56 PM 30.9947 -82.1050 18° North 451 519 39,000  Level Jacksonville Center
Mon 10:03:56 PM 31.1178 -82.0628 16° North 451 519 39,000  Level Jacksonville Center
Mon 10:04:56 PM 31.2406 -82.0203 16° North 456 525 39,000  Level Jacksonville Center
Mon 10:05:56 PM 31.3636 -81.9753 17° North 456 525 39,000  Level Jacksonville Center
Mon 10:06:56 PM 31.4822 -81.9303 18° North 456 525 39,000  Level Jacksonville Center
Mon 10:07:56 PM 31.5925 -81.8903 17° North 456 525 39,000  Level Jacksonville Center
Mon 10:08:56 PM 31.7278 -81.8422 17° North 442 509 39,000  Level Jacksonville Center
Mon 10:09:56 PM 31.8361 -81.8044 17° North 448 516 39,000  Level Jacksonville Center
Mon 10:10:56 PM 31.9694 -81.7564 17° North 454 522 39,000  Level Jacksonville Center
Mon 10:11:56 PM 32.0900 -81.7131 17° North 454 522 39,000  Level Jacksonville Center
Mon 10:12:56 PM 32.1983 -81.6725 18° North 454 522 39,000  Level Jacksonville Center
Mon 10:13:56 PM 32.3333 -81.6239 17° North 454 522 39,000  Level Jacksonville Center
Mon 10:14:56 PM 32.4561 -81.5778 18° North 454 522 39,000  Level Jacksonville Center
Mon 10:15:56 PM 32.5644 -81.5392 17° North 454 522 39,000  Level Jacksonville Center
Mon 10:16:56 PM 32.6850 -81.4956 17° North 454 522 39,000  Level Jacksonville Center
Mon 10:17:56 PM 32.8075 -81.4492 18° North 454 522 39,000  Level Jacksonville Center
Mon 10:18:56 PM 32.9239 -81.4053 18° North 454 522 39,000  Level Jacksonville Center
Mon 10:19:56 PM 33.0467 -81.3611 17° North 449 517 39,000  Level Jacksonville Center
Mon 10:20:56 PM 33.1669 -81.3167 17° North 449 517 39,000  Level Jacksonville Center
Mon 10:21:56 PM 33.2875 -81.2725 17° North 449 517 39,000  Level Jacksonville Center
Mon 10:22:56 PM 33.4183 -81.2203 18° North 449 517 39,000  Level Jacksonville Center
Mon 10:23:56 PM 33.5389 -81.1781 16° North 449 517 39,000  Level Jacksonville Center
Mon 10:24:56 PM 33.6614 -81.1308 18° North 449 517 39,000  Level Jacksonville Center
Mon 10:25:56 PM 33.7692 -81.0864 19° North 454 522 39,000  Level Jacksonville Center
Mon 10:26:56 PM 33.8956 -81.0211 23° Northeast 459 528 39,000  Level Jacksonville Center
Mon 10:27:56 PM 33.9942 -80.9114 43° Northeast 463 533 39,000  Level Jacksonville Center
Mon 10:28:56 PM 34.0925 -80.7986 44° Northeast 471 542 39,000  Level Jacksonville Center
Mon 10:29:56 PM 34.1947 -80.6883 42° Northeast 483 556 39,000  Level Jacksonville Center
Mon 10:30:56 PM 34.2931 -80.5778 43° Northeast 483 556 39,000  Level Jacksonville Center
Mon 10:31:56 PM 34.3931 -80.4694 42° Northeast 488 562 39,000  Level Jacksonville Center
Mon 10:33:31 PM 34.5489 -80.2894 44° Northeast 485 558 39,000  Level Washington Center
Mon 10:34:31 PM 34.6469 -80.1817 42° Northeast 475 547 39,000 -550 Level Washington Center
Mon 10:35:31 PM 34.7472 -80.0683 43° Northeast 480 552 37,900 -1,000 Descending Washington Center
Mon 10:36:31 PM 34.8472 -79.9600 42° Northeast 480 552 37,000 -450 Descending Washington Center
Mon 10:37:31 PM 34.9475 -79.8464 43° Northeast 485 558 37,000  Level Washington Center
Mon 10:38:31 PM 35.0575 -79.7431 38° Northeast 485 558 37,000  Level Washington Center
Mon 10:39:31 PM 35.1714 -79.6422 36° Northeast 490 564 37,000  Level Washington Center
Mon 10:40:31 PM 35.2836 -79.5383 37° Northeast 502 578 37,000  Level Washington Center
Mon 10:41:31 PM 35.3933 -79.4317 38° Northeast 502 578 37,000  Level Washington Center
Mon 10:42:31 PM 35.5072 -79.3300 36° Northeast 502 578 37,000  Level Washington Center
Mon 10:43:31 PM 35.6147 -79.2278 38° Northeast 493 567 37,000  Level Washington Center
Mon 10:44:31 PM 35.7264 -79.1253 37° Northeast 493 567 37,000  Level Washington Center
Mon 10:45:31 PM 35.8336 -79.0250 37° Northeast 493 567 37,000  Level Washington Center
Mon 10:46:31 PM 35.9428 -78.9222 37° Northeast 493 567 37,000  Level Washington Center
Mon 10:47:31 PM 36.0519 -78.8214 37° Northeast 493 567 37,000  Level Washington Center
Mon 10:48:31 PM 36.1611 -78.7178 37° Northeast 493 567 37,000  Level Washington Center
Mon 10:49:31 PM 36.2703 -78.6139 37° Northeast 493 567 37,000  Level Washington Center
Mon 10:50:31 PM 36.3772 -78.5122 37° Northeast 493 567 37,000  Level Washington Center
Mon 10:51:31 PM 36.4839 -78.4078 38° Northeast 493 567 37,000  Level Washington Center
Mon 10:52:31 PM 36.5947 -78.3031 37° Northeast 493 567 37,000  Level Washington Center
Mon 10:53:31 PM 36.6908 -78.2106 38° Northeast 493 567 37,000  Level Washington Center
Mon 10:54:31 PM 36.7975 -78.1028 39° Northeast 487 560 37,000  Level Washington Center
Mon 10:55:31 PM 36.9061 -77.9972 38° Northeast 487 560 37,000  Level Washington Center
Mon 10:56:31 PM 37.0144 -77.8914 38° Northeast 492 566 37,000  Level Washington Center
Mon 10:57:31 PM 37.1269 -77.7825 38° Northeast 492 566 37,000  Level Washington Center
Mon 10:58:31 PM 37.2375 -77.6736 38° Northeast 492 566 37,000  Level Washington Center
Mon 10:59:31 PM 37.3500 -77.5644 38° Northeast 492 566 37,000  Level Washington Center
Mon 11:00:31 PM 37.4600 -77.4519 39° Northeast 497 572 37,000  Level Washington Center
Mon 11:01:31 PM 37.5744 -77.3422 37° Northeast 497 572 37,000  Level Washington Center
Mon 11:02:31 PM 37.6867 -77.2292 39° Northeast 508 585 37,000  Level Washington Center
Mon 11:03:31 PM 37.7986 -77.1161 39° Northeast 508 585 37,000  Level Washington Center
Mon 11:04:31 PM 37.9106 -77.0025 39° Northeast 513 590 37,000  Level Washington Center
Mon 11:05:31 PM 38.0264 -76.8861 38° Northeast 518 596 37,000  Level Washington Center
Mon 11:06:31 PM 38.1383 -76.7719 39° Northeast 518 596 37,000  Level Washington Center
Mon 11:07:31 PM 38.2519 -76.6547 39° Northeast 518 596 37,000  Level Washington Center
Mon 11:08:31 PM 38.3633 -76.5397 39° Northeast 518 596 37,000  Level Washington Center
Mon 11:09:31 PM 38.4811 -76.4192 39° Northeast 523 602 37,000  Level Washington Center
Mon 11:10:31 PM 38.5964 -76.3036 38° Northeast 523 602 37,000  Level Washington Center
Mon 11:11:31 PM 38.7117 -76.1822 39° Northeast 523 602 37,000  Level Washington Center
Mon 11:12:31 PM 38.8353 -76.0606 37° Northeast 534 615 37,000  Level Washington Center
Mon 11:13:31 PM 38.9483 -75.9414 39° Northeast 534 615 37,000  Level Washington Center
Mon 11:14:31 PM 39.0653 -75.8161 40° Northeast 534 615 37,000  Level Washington Center
Mon 11:15:31 PM 39.1781 -75.6986 39° Northeast 534 615 37,000  Level Washington Center
Mon 11:16:31 PM 39.2925 -75.5756 40° Northeast 534 615 37,000  Level Washington Center
Mon 11:17:31 PM 39.4072 -75.4519 40° Northeast 534 615 37,000  Level Washington Center
Mon 11:18:31 PM 39.5217 -75.3333 39° Northeast 529 609 37,000  Level Washington Center
Mon 11:20:04 PM 39.7078 -75.1289 40° Northeast 537 618 37,000  Level New York Center
Mon 11:21:04 PM 39.8228 -75.0061 39° Northeast 542 624 37,000  Level New York Center
Mon 11:22:03 PM 39.9378 -74.8806 40° Northeast 542 624 37,000  Level New York Center
Mon 11:23:03 PM 40.0386 -74.7319 48° Northeast 534 615 37,000  Level New York Center
Mon 11:24:05 PM 40.1483 -74.6350 34° Northeast 529 609 37,000  Level New York Center
Mon 11:25:03 PM 40.2919 -74.5778 17° North 529 609 37,000  Level New York Center
Mon 11:26:04 PM 40.4350 -74.5367 12° North 529 609 37,000  Level New York Center
Mon 11:27:05 PM 40.5781 -74.4925 13° North 524 603 37,000  Level New York Center
Mon 11:28:02 PM 40.7189 -74.4481 13° North 513 590 37,000  Level New York Center
Mon 11:29:03 PM 40.8600 -74.4036 13° North 513 590 37,000  Level New York Center
Mon 11:31:15 PM 41.2033 -74.3022 13° North 540 621 37,000  Level Boston Center
Mon 11:32:15 PM 41.3333 -74.2564 15° North 540 621 37,000  Level Boston Center
Mon 11:33:15 PM 41.4819 -74.2108 13° North 540 621 37,000 -400 Level Boston Center
Mon 11:34:15 PM 41.6453 -74.1625 12° North 545 627 36,200 -850 Descending Boston Center
Mon 11:35:15 PM 41.7542 -74.1292 13° North 532 612 35,300 -1,388 Descending Boston Center
Mon 11:36:16 PM 41.9114 -74.0778 14° North 493 567 33,400 -1,150 Descending Boston Center
Mon 11:37:15 PM 42.0453 -74.0364 13° North 488 562 33,000 -303 Descending Boston Center
Mon 11:38:15 PM 42.1775 -73.9781 18° North 488 562 32,800 -650 Descending Boston Center
Mon 11:39:15 PM 42.2933 -73.8772 33° Northeast 488 562 31,700 -1,000 Descending Boston Center
Mon 11:40:15 PM 42.3806 -73.7386 50° Northeast 470 541 30,800 -1,500 Descending Boston Center
Mon 11:41:15 PM 42.4239 -73.5650 71° East 470 541 28,700 -2,000 Descending Boston Center
Mon 11:42:15 PM 42.4672 -73.3997 70° East 465 535 26,800 -1,800 Descending Boston Center
Mon 11:43:15 PM 42.5017 -73.2511 73° East 465 535 25,100 -900 Descending Boston Center
Mon 11:44:15 PM 42.5403 -73.0994 71° East 445 512 25,000 -900 Descending Boston Center
Mon 11:45:15 PM 42.5742 -72.9561 72° East 415 478 23,300 -2,300 Descending Boston Center
Mon 11:46:15 PM 42.6103 -72.8153 71° East 400 460 20,400 -2,450 Descending Boston Center
Mon 11:47:15 PM 42.6439 -72.6800 71° East 393 452 18,400 -1,700 Descending Boston Center
Mon 11:48:15 PM 42.6756 -72.5447 72° East 375 432 17,000 -1,800 Descending Boston Center
Mon 11:49:15 PM 42.7067 -72.4175 72° East 362 417 14,800 -2,200 Descending Boston Center
Mon 11:50:15 PM 42.7381 -72.2903 71° East 362 417 12,600 -2,150 Descending Boston Center
Mon 11:51:15 PM 42.7647 -72.1686 73° East 345 397 10,500 -1,500 Descending Boston Center
Mon 11:52:15 PM 42.7872 -72.0469 76° East 311 358 9,600 -1,140 Descending Boston Center
Mon 11:53:16 PM 42.7850 -71.9536 92° East 282 325 8,200 -1,500 Descending Boston Center
Mon 11:54:27 PM 42.7989 -71.8431 80° East 264 304 6,300 -1,878 Descending Boston Center
Mon 11:55:27 PM 42.8233 -71.7325 73° East 253 291 4,100 -1,600 Descending Boston Center
Mon 11:56:27 PM 42.8394 -71.6444 76° East 243 280 3,100 -750 Descending Boston Center
Mon 11:57:27 PM 42.8536 -71.5819 73° East 193 222 2,600 -500 Descending Boston Center
Mon 11:58:27 PM 42.8678 -71.5250 71° East 163 188 2,100 -750 Descending Boston Center
Mon 11:59:27 PM 42.8967 -71.4906 41° Northeast 125 144 1,100 3,136 Descending Boston Center
Tue 12:00:39 AM 42.9214 -71.4592 43° Northeast 115 132 9,000 3,591 Climbing Boston Center
Tue 12:01:39 AM 42.9503 -71.4247 41° Northeast 115 132 9,000  Level Boston Center
Tue 12:02:39 AM 42.9769 -71.3958 38° Northeast 115 132 9,000  Level Boston Center
Tue 12:03:39 AM 43.0019 -71.3669 40° Northeast 115 132 9,000  Level Boston Center
Tue 12:04:39 AM 43.0286 -71.3381 38° Northeast 115 132 9,000  Level Boston Center
Tue 12:05:39 AM 43.0328 -71.3322 46° Northeast 115 132 9,000  Level Boston Center

Login

Don't have an account? Register now (free) for customized features, flight alerts, and more!